createdAt,value
2019-04-06T00:05:36.905Z,30.00
2019-04-06T00:11:36.917Z,28.90
2019-04-06T00:17:36.894Z,29.70
2019-04-06T00:23:36.894Z,31.00
2019-04-06T00:29:36.952Z,29.00
2019-04-06T00:35:36.916Z,29.10
2019-04-06T00:41:36.937Z,28.30
2019-04-06T00:47:37.921Z,30.30
2019-04-06T00:53:36.888Z,29.90
2019-04-06T00:59:36.929Z,30.30
2019-04-06T01:05:36.899Z,30.50
2019-04-06T01:11:36.935Z,26.40
2019-04-06T01:17:36.957Z,28.10
2019-04-06T01:23:36.966Z,27.10
2019-04-06T01:29:36.901Z,24.60
2019-04-06T01:35:36.924Z,26.40
2019-04-06T01:41:36.902Z,26.00
2019-04-06T01:47:36.997Z,27.10
2019-04-06T01:53:36.925Z,25.00
2019-04-06T01:59:36.954Z,24.40
2019-04-06T02:05:36.951Z,28.00
2019-04-06T02:11:36.953Z,25.00
2019-04-06T02:17:36.949Z,24.60
2019-04-06T02:23:36.953Z,24.00
2019-04-06T02:29:36.965Z,22.30
2019-04-06T02:35:37.080Z,22.40
2019-04-06T02:41:36.965Z,22.10
2019-04-06T02:53:36.972Z,21.90
2019-04-06T02:59:36.934Z,21.80
2019-04-06T03:05:37.006Z,22.10
2019-04-06T03:11:36.939Z,21.90
2019-04-06T03:17:37.046Z,21.70
2019-04-06T03:23:49.743Z,21.70
2019-04-06T03:29:36.930Z,22.30
2019-04-06T03:35:37.104Z,21.30
2019-04-06T03:41:37.005Z,20.70
2019-04-06T03:47:36.978Z,20.30
2019-04-06T03:53:36.962Z,19.30
2019-04-06T03:59:36.972Z,21.20
2019-04-06T04:05:37.121Z,21.00
2019-04-06T04:11:36.965Z,19.20
2019-04-06T04:17:37.257Z,20.30
2019-04-06T04:23:36.996Z,21.30
2019-04-06T04:29:36.967Z,20.00
2019-04-06T04:35:37.049Z,19.90
2019-04-06T04:41:39.346Z,20.10
2019-04-06T04:47:37.072Z,22.00
2019-04-06T04:53:36.985Z,20.30
2019-04-06T04:59:36.966Z,18.70
2019-04-06T05:05:37.129Z,19.10
2019-04-06T05:11:36.978Z,19.40
2019-04-06T05:17:37.000Z,20.00
2019-04-06T05:23:36.968Z,19.60
2019-04-06T05:29:37.005Z,19.90
2019-04-06T05:35:36.996Z,23.60
2019-04-06T05:41:37.050Z,22.10
2019-04-06T05:47:36.981Z,17.80
2019-04-06T05:53:36.992Z,21.60
2019-04-06T05:59:39.906Z,19.50
2019-04-06T06:05:40.331Z,20.30
2019-04-06T06:11:37.097Z,20.70
2019-04-06T06:17:37.076Z,19.70
2019-04-06T06:23:36.997Z,22.10
2019-04-06T06:29:37.039Z,23.10
2019-04-06T06:35:37.004Z,23.40
2019-04-06T06:41:36.981Z,24.60
2019-04-06T06:47:36.991Z,24.40
2019-04-06T06:53:37.053Z,22.80
2019-04-06T06:59:37.008Z,20.20
2019-04-06T07:05:39.398Z,19.20
2019-04-06T07:11:39.457Z,18.60
2019-04-06T07:17:37.008Z,18.10
2019-04-06T07:23:37.020Z,18.40
2019-04-06T07:29:36.990Z,17.00
2019-04-06T07:35:37.135Z,17.40
2019-04-06T07:41:37.191Z,16.10
2019-04-06T07:47:37.045Z,16.60
2019-04-06T07:53:37.056Z,16.50
2019-04-06T07:59:37.020Z,15.80
2019-04-06T08:05:37.082Z,16.00
2019-04-06T08:11:37.036Z,16.00
2019-04-06T08:17:37.048Z,16.40
2019-04-06T08:23:37.174Z,16.50
2019-04-06T08:29:37.031Z,17.00
2019-04-06T08:35:37.021Z,17.40
2019-04-06T08:41:39.791Z,19.20
2019-04-06T08:47:37.639Z,18.80
2019-04-06T08:53:37.040Z,19.40
2019-04-06T08:59:37.081Z,18.90
2019-04-06T09:05:37.209Z,20.30
2019-04-06T09:11:37.088Z,20.40
2019-04-06T09:17:37.096Z,20.50
2019-04-06T09:23:37.124Z,19.20
2019-04-06T09:29:37.266Z,20.10
2019-04-06T09:35:37.156Z,20.00
2019-04-06T09:41:37.167Z,18.00
2019-04-06T09:47:37.117Z,19.90
2019-04-06T09:53:37.293Z,18.60
2019-04-06T09:59:39.243Z,19.00
2019-04-06T10:05:37.294Z,19.60
2019-04-06T10:11:38.849Z,19.60
2019-04-06T10:17:37.134Z,19.70
2019-04-06T10:23:37.114Z,20.30
2019-04-06T10:29:47.332Z,20.80
2019-04-06T10:35:37.260Z,21.20
2019-04-06T10:41:37.337Z,23.30
2019-04-06T10:47:37.164Z,23.30
2019-04-06T10:53:39.652Z,21.40
2019-04-06T10:59:37.537Z,21.10
2019-04-06T11:05:37.426Z,19.60
2019-04-06T11:11:39.683Z,20.40
2019-04-06T11:17:37.134Z,20.20
2019-04-06T11:23:37.206Z,22.40
2019-04-06T11:29:37.277Z,23.20
2019-04-06T11:35:37.168Z,23.30
2019-04-06T11:41:38.235Z,24.20
2019-04-06T11:47:37.162Z,23.70
2019-04-06T11:53:37.381Z,24.40
2019-04-06T11:59:37.218Z,25.10
2019-04-06T12:05:37.166Z,23.40
2019-04-06T12:11:37.213Z,22.90
2019-04-06T12:17:37.252Z,20.70
2019-04-06T12:23:37.358Z,28.50
2019-04-06T12:29:37.232Z,17.20
2019-04-06T12:35:37.221Z,16.30
2019-04-06T12:41:37.206Z,14.60
2019-04-06T12:47:37.329Z,15.70
2019-04-06T12:53:37.414Z,16.00
2019-04-06T12:59:38.000Z,17.70
2019-04-06T13:05:37.217Z,18.90
2019-04-06T13:11:37.641Z,17.20
2019-04-06T13:17:37.310Z,16.20
2019-04-06T13:23:37.246Z,17.20
2019-04-06T13:29:37.264Z,18.30
2019-04-06T13:35:37.516Z,17.00
2019-04-06T13:41:37.298Z,16.10
2019-04-06T13:47:37.285Z,14.80
2019-04-06T13:53:37.380Z,14.60
2019-04-06T13:59:37.548Z,14.30
2019-04-06T14:05:37.345Z,15.10
2019-04-06T14:11:37.532Z,15.50
2019-04-06T14:17:37.282Z,17.60
2019-04-06T14:23:37.283Z,16.90
2019-04-06T14:29:37.318Z,17.60
2019-04-06T14:35:37.314Z,17.00
2019-04-06T14:41:37.435Z,20.80
2019-04-06T14:47:37.400Z,19.30
2019-04-06T14:53:37.349Z,18.70
2019-04-06T14:59:38.426Z,18.00
2019-04-06T15:05:37.633Z,19.20
2019-04-06T15:11:37.295Z,19.30
2019-04-06T15:17:37.319Z,19.80
2019-04-06T15:23:37.404Z,18.40
2019-04-06T15:29:37.397Z,17.90
2019-04-06T15:35:37.343Z,18.40
2019-04-06T15:41:37.633Z,18.90
2019-04-06T15:47:37.318Z,18.80
2019-04-06T15:53:37.438Z,21.40
2019-04-06T15:59:37.458Z,18.40
2019-04-06T16:05:37.713Z,21.40
2019-04-06T16:11:37.345Z,19.70
2019-04-06T16:17:37.434Z,19.40
2019-04-06T16:23:37.540Z,18.50
2019-04-06T16:29:37.361Z,17.80
2019-04-06T16:35:37.743Z,17.20
2019-04-06T16:41:37.373Z,18.70
2019-04-06T16:47:37.482Z,18.60
2019-04-06T16:53:37.472Z,18.60
2019-04-06T16:59:37.521Z,17.60
2019-04-06T17:05:37.392Z,18.10
2019-04-06T17:11:37.451Z,17.70
2019-04-06T17:17:37.489Z,18.20
2019-04-06T17:23:37.478Z,17.40
2019-04-06T17:29:37.578Z,17.90
2019-04-06T17:35:37.429Z,19.40
2019-04-06T17:41:37.448Z,18.20
2019-04-06T17:47:37.472Z,18.60
2019-04-06T17:53:37.487Z,17.90
2019-04-06T17:59:37.428Z,20.10
2019-04-06T18:05:37.509Z,19.50
2019-04-06T18:11:37.623Z,24.70
2019-04-06T18:17:37.487Z,21.00
2019-04-06T18:23:37.488Z,18.40
2019-04-06T18:29:37.447Z,22.40
2019-04-06T18:35:37.522Z,20.10
2019-04-06T18:41:38.324Z,20.80
2019-04-06T18:47:38.020Z,20.60
2019-04-06T18:53:37.661Z,22.60
2019-04-06T18:59:38.595Z,21.30
2019-04-06T19:05:37.477Z,20.80
2019-04-06T19:11:38.093Z,20.80
2019-04-06T19:17:37.742Z,22.30
2019-04-06T19:23:37.846Z,22.20
2019-04-06T19:29:37.463Z,23.20
2019-04-06T19:35:37.609Z,22.40
2019-04-06T19:41:38.100Z,21.30
2019-04-06T19:47:38.193Z,19.80
2019-04-06T19:53:37.935Z,23.00
2019-04-06T19:59:37.699Z,19.80
2019-04-06T20:05:37.610Z,20.10
2019-04-06T20:11:37.549Z,20.50
2019-04-06T20:17:37.615Z,18.10
2019-04-06T20:23:38.005Z,17.00
2019-04-06T20:29:37.957Z,17.10
2019-04-06T20:35:38.377Z,17.20
2019-04-06T20:41:37.539Z,20.00
2019-04-06T20:47:37.654Z,20.40
2019-04-06T20:58:26.031Z,18.80
2019-04-06T21:04:26.477Z,18.70
2019-04-06T21:10:26.012Z,17.40
2019-04-06T21:16:26.556Z,16.90
2019-04-06T21:22:26.213Z,16.20
2019-04-06T21:28:26.168Z,16.00
2019-04-06T21:34:26.110Z,16.30
2019-04-06T21:40:26.426Z,16.80
2019-04-06T21:46:26.246Z,19.70
2019-04-06T21:52:26.240Z,21.70
2019-04-06T21:58:27.052Z,19.20
2019-04-06T22:04:27.299Z,20.50
2019-04-06T22:10:26.481Z,21.40
2019-04-06T22:16:27.215Z,21.90
2019-04-06T22:22:26.032Z,21.30
2019-04-06T22:28:26.704Z,21.80
2019-04-06T22:34:36.552Z,21.80
2019-04-06T22:40:26.007Z,21.30
2019-04-06T22:46:26.234Z,21.60
2019-04-06T22:52:26.246Z,20.70
2019-04-06T22:58:26.057Z,22.30
2019-04-06T23:04:26.073Z,23.80
2019-04-06T23:10:26.049Z,22.60
2019-04-06T23:16:26.478Z,23.90
2019-04-06T23:22:26.295Z,23.40
2019-04-06T23:28:26.088Z,23.30
2019-04-06T23:34:26.079Z,22.70
2019-04-06T23:40:26.041Z,23.90
2019-04-06T23:46:26.057Z,23.70
2019-04-06T23:52:26.307Z,23.60
2019-04-06T23:58:26.102Z,22.40
